createdAt,value
2022-11-16T00:02:14.515Z,6.33
2022-11-16T00:04:41.621Z,6.53
2022-11-16T00:07:08.749Z,6.33
2022-11-16T00:09:35.385Z,7.37
2022-11-16T00:12:05.228Z,9.23
2022-11-16T00:14:33.941Z,8.60
2022-11-16T00:17:01.413Z,8.10
2022-11-16T00:19:28.569Z,8.87
2022-11-16T00:21:55.419Z,7.43
2022-11-16T00:24:23.386Z,7.20
2022-11-16T00:26:51.142Z,6.43
2022-11-16T00:29:24.187Z,7.00
2022-11-16T00:31:52.221Z,7.10
2022-11-16T00:34:21.971Z,6.47
2022-11-16T00:36:48.750Z,7.30
2022-11-16T00:39:16.605Z,7.57
2022-11-16T00:41:46.271Z,6.80
2022-11-16T00:44:13.242Z,8.23
2022-11-16T00:46:40.334Z,6.07
2022-11-16T00:49:08.063Z,6.57
2022-11-16T00:51:36.107Z,5.23
2022-11-16T00:54:04.935Z,6.40
2022-11-16T00:56:34.971Z,6.30
2022-11-16T00:59:01.696Z,6.00
2022-11-16T01:01:28.335Z,5.20
2022-11-16T01:03:55.148Z,6.83
2022-11-16T01:06:23.361Z,6.57
2022-11-16T01:08:50.444Z,6.27
2022-11-16T01:11:36.163Z,6.93
2022-11-16T01:14:05.065Z,5.80
2022-11-16T01:16:31.982Z,6.17
2022-11-16T01:18:58.832Z,6.50
2022-11-16T01:21:25.735Z,6.50
2022-11-16T01:23:52.643Z,6.00
2022-11-16T01:26:19.367Z,6.47
2022-11-16T01:28:46.028Z,7.20
2022-11-16T01:31:13.360Z,8.10
2022-11-16T01:33:41.664Z,9.83
2022-11-16T01:36:16.515Z,10.63
2022-11-16T01:38:45.626Z,11.60
2022-11-16T01:41:17.334Z,11.33
2022-11-16T01:44:14.981Z,13.10
2022-11-16T01:46:53.058Z,9.67
2022-11-16T01:49:25.559Z,7.90
2022-11-16T01:52:00.604Z,9.17
2022-11-16T01:54:30.951Z,10.23
2022-11-16T01:57:02.912Z,12.63
2022-11-16T01:59:42.323Z,12.90
2022-11-16T02:02:15.405Z,14.43
2022-11-16T02:04:43.515Z,15.43
2022-11-16T02:07:31.339Z,14.47
2022-11-16T02:10:13.698Z,12.37
2022-11-16T02:13:12.379Z,10.70
2022-11-16T02:15:49.616Z,9.13
2022-11-16T02:18:30.166Z,11.77
2022-11-16T02:21:03.667Z,9.37
2022-11-16T02:23:48.497Z,9.97
2022-11-16T02:26:33.245Z,16.27
2022-11-16T02:29:30.901Z,10.60
2022-11-16T02:32:01.485Z,8.97
2022-11-16T02:34:37.497Z,14.33
2022-11-16T02:37:07.669Z,11.80
2022-11-16T02:39:38.865Z,14.17
2022-11-16T02:42:11.106Z,14.40
2022-11-16T02:44:44.748Z,16.80
2022-11-16T02:47:18.099Z,16.53
2022-11-16T02:49:54.498Z,12.10
2022-11-16T02:52:23.157Z,11.27
2022-11-16T02:54:49.890Z,13.10
2022-11-16T02:57:29.630Z,14.60
2022-11-16T02:59:59.081Z,13.03
2022-11-16T03:02:43.303Z,16.13
2022-11-16T03:05:18.533Z,15.80
2022-11-16T03:08:07.189Z,16.60
2022-11-16T03:10:57.224Z,15.37
2022-11-16T03:13:28.359Z,10.67
2022-11-16T03:15:56.490Z,11.60
2022-11-16T03:18:28.988Z,11.20
2022-11-16T03:21:08.632Z,11.87
2022-11-16T03:23:35.599Z,11.47
2022-11-16T03:26:07.291Z,13.33
2022-11-16T03:28:42.099Z,16.10
2022-11-16T03:31:15.144Z,11.63
2022-11-16T03:33:52.898Z,13.57
2022-11-16T03:36:31.208Z,16.00
2022-11-16T03:39:03.098Z,11.80
2022-11-16T03:41:35.483Z,11.77
2022-11-16T03:44:02.618Z,12.17
2022-11-16T03:46:29.264Z,20.40
2022-11-16T03:48:58.026Z,18.57
2022-11-16T03:51:27.521Z,12.00
2022-11-16T03:53:54.763Z,15.93
2022-11-16T03:56:21.582Z,13.60
2022-11-16T03:58:48.332Z,12.77
2022-11-16T04:01:15.052Z,12.00
2022-11-16T04:03:42.157Z,12.83
2022-11-16T04:06:29.077Z,11.83
2022-11-16T04:09:14.205Z,11.57
2022-11-16T04:11:59.635Z,11.93
2022-11-16T04:14:46.350Z,10.73
2022-11-16T04:17:36.637Z,11.53
2022-11-16T04:20:23.345Z,13.47
2022-11-16T04:23:29.409Z,11.63
2022-11-16T04:25:56.357Z,11.80
2022-11-16T04:28:28.664Z,11.80
2022-11-16T04:31:20.272Z,15.80
2022-11-16T04:34:16.327Z,11.97
2022-11-16T04:37:06.561Z,11.10
2022-11-16T04:39:33.157Z,11.00
2022-11-16T04:42:14.870Z,11.67
2022-11-16T04:45:01.783Z,11.27
2022-11-16T04:47:35.200Z,11.27
2022-11-16T04:50:06.297Z,12.03
2022-11-16T04:52:35.847Z,10.80
2022-11-16T04:55:09.496Z,11.83
2022-11-16T04:57:44.168Z,11.07
2022-11-16T05:00:19.133Z,12.23
2022-11-16T05:02:48.864Z,12.57
2022-11-16T05:05:16.415Z,11.77
2022-11-16T05:07:46.502Z,11.57
2022-11-16T05:10:27.574Z,11.97
2022-11-16T05:12:55.335Z,14.97
2022-11-16T05:15:23.439Z,12.70
2022-11-16T05:17:57.525Z,12.43
2022-11-16T05:20:47.067Z,12.40
2022-11-16T05:23:34.249Z,12.00
2022-11-16T05:26:07.382Z,11.97
2022-11-16T05:28:37.607Z,14.83
2022-11-16T05:31:04.777Z,13.00
2022-11-16T05:33:35.264Z,11.87
2022-11-16T05:36:03.199Z,12.77
2022-11-16T05:38:30.764Z,12.60
2022-11-16T05:43:59.752Z,11.97
2022-11-16T05:46:33.661Z,11.17
2022-11-16T05:49:18.420Z,11.40
2022-11-16T05:51:46.791Z,12.47
2022-11-16T05:54:21.215Z,11.97
2022-11-16T05:56:49.303Z,16.13
2022-11-16T05:59:20.163Z,16.40
2022-11-16T06:01:50.498Z,16.00
2022-11-16T06:04:24.042Z,15.20
2022-11-16T06:06:50.763Z,15.43
2022-11-16T06:09:18.539Z,14.23
2022-11-16T06:11:46.330Z,13.63
2022-11-16T06:14:13.042Z,16.10
2022-11-16T06:16:39.630Z,15.90
2022-11-16T06:19:08.787Z,14.00
2022-11-16T06:21:36.336Z,15.07
2022-11-16T06:24:09.038Z,16.47
2022-11-16T06:26:37.002Z,17.83
2022-11-16T06:29:04.314Z,14.27
2022-11-16T06:31:31.403Z,15.47
2022-11-16T06:34:00.592Z,14.17
2022-11-16T06:36:29.173Z,16.07
2022-11-16T06:39:00.184Z,13.53
2022-11-16T06:41:28.636Z,14.27
2022-11-16T06:43:55.688Z,13.97
2022-11-16T06:46:27.972Z,10.63
2022-11-16T06:48:56.410Z,10.37
2022-11-16T06:51:23.094Z,10.40
2022-11-16T06:53:49.713Z,10.70
2022-11-16T06:56:16.447Z,11.47
2022-11-16T06:58:53.076Z,9.83
2022-11-16T07:01:20.355Z,11.13
2022-11-16T07:03:48.891Z,11.87
2022-11-16T07:06:16.504Z,11.97
2022-11-16T07:08:45.738Z,17.20
2022-11-16T07:11:15.352Z,12.37
2022-11-16T07:13:42.900Z,12.57
2022-11-16T07:16:11.562Z,11.47
2022-11-16T07:18:43.019Z,12.20
2022-11-16T07:21:16.174Z,9.93
2022-11-16T07:23:43.821Z,10.10
2022-11-16T07:26:13.747Z,12.67
2022-11-16T07:28:48.865Z,14.97
2022-11-16T07:31:19.400Z,11.70
2022-11-16T07:33:46.433Z,12.00
2022-11-16T07:36:31.316Z,11.17
2022-11-16T07:38:58.187Z,10.60
2022-11-16T07:41:24.913Z,10.83
2022-11-16T07:44:11.755Z,12.30
2022-11-16T07:46:48.561Z,11.80
2022-11-16T07:49:18.860Z,12.60
2022-11-16T07:51:52.797Z,12.57
2022-11-16T07:54:51.655Z,12.60
2022-11-16T07:57:20.576Z,11.53
2022-11-16T07:59:47.990Z,11.37
2022-11-16T08:02:14.624Z,12.73
2022-11-16T08:04:43.232Z,13.67
2022-11-16T08:07:10.187Z,12.20
2022-11-16T08:09:43.520Z,12.97
2022-11-16T08:12:13.337Z,13.43
2022-11-16T08:14:39.960Z,13.63
2022-11-16T08:17:08.302Z,14.60
2022-11-16T08:19:36.599Z,15.63
2022-11-16T08:22:03.810Z,13.47
2022-11-16T08:24:32.982Z,12.33
2022-11-16T08:26:59.660Z,13.67
2022-11-16T08:29:27.014Z,11.87
2022-11-16T08:31:56.155Z,12.70
2022-11-16T08:34:23.120Z,11.87
2022-11-16T08:36:53.331Z,11.73
2022-11-16T08:39:25.849Z,11.90
2022-11-16T08:41:52.622Z,10.90
2022-11-16T08:44:19.715Z,12.20
2022-11-16T08:46:50.998Z,11.90
2022-11-16T08:49:28.829Z,13.20
2022-11-16T08:51:56.146Z,12.90
2022-11-16T08:54:22.865Z,12.40
2022-11-16T08:56:49.529Z,11.67
2022-11-16T08:59:17.945Z,11.57
2022-11-16T09:01:50.232Z,12.17
2022-11-16T09:04:18.680Z,11.50
2022-11-16T09:06:45.472Z,11.80
2022-11-16T09:09:12.006Z,12.30
2022-11-16T09:11:38.552Z,11.57
2022-11-16T09:14:05.059Z,12.40
2022-11-16T09:16:31.571Z,12.37
2022-11-16T09:18:58.090Z,10.80
2022-11-16T09:21:27.223Z,10.77
2022-11-16T09:23:55.368Z,8.90
2022-11-16T09:26:23.318Z,9.90
2022-11-16T09:28:59.257Z,10.03
2022-11-16T09:31:31.273Z,7.83
2022-11-16T09:33:58.863Z,6.97
2022-11-16T09:36:29.430Z,5.30
2022-11-16T09:41:49.821Z,7.30
2022-11-16T09:44:16.362Z,5.73
2022-11-16T09:46:58.477Z,6.20
2022-11-16T09:49:39.679Z,5.13
2022-11-16T09:52:14.386Z,5.50
2022-11-16T09:54:43.026Z,6.07
2022-11-16T09:57:15.793Z,5.53
2022-11-16T09:59:49.649Z,6.03
2022-11-16T10:02:26.378Z,5.87
2022-11-16T10:05:03.049Z,6.60
2022-11-16T10:07:42.431Z,5.63
2022-11-16T10:10:14.439Z,5.77
2022-11-16T10:12:44.005Z,6.27
2022-11-16T10:15:24.146Z,7.43
2022-11-16T10:17:59.495Z,6.30
2022-11-16T10:21:03.586Z,5.80
2022-11-16T10:24:08.219Z,5.60
2022-11-16T10:26:59.488Z,5.43
2022-11-16T10:29:36.397Z,6.27
2022-11-16T10:32:18.260Z,6.00
2022-11-16T10:34:56.411Z,5.87
2022-11-16T10:37:29.479Z,5.77
2022-11-16T10:39:56.085Z,5.77
2022-11-16T10:42:35.855Z,5.80
2022-11-16T10:45:34.879Z,6.20
2022-11-16T10:48:14.509Z,5.63
2022-11-16T10:50:46.139Z,5.50
2022-11-16T10:53:15.051Z,7.00
2022-11-16T10:55:42.105Z,6.43
2022-11-16T10:58:08.669Z,7.00
2022-11-16T11:00:51.693Z,6.47
2022-11-16T11:03:32.394Z,6.77
2022-11-16T11:05:59.705Z,7.10
2022-11-16T11:08:30.541Z,7.67
2022-11-16T11:11:01.842Z,6.70
2022-11-16T11:13:29.311Z,6.57
2022-11-16T11:16:15.950Z,6.17
2022-11-16T11:18:42.487Z,6.70
2022-11-16T11:21:19.891Z,7.83
2022-11-16T11:23:59.463Z,6.30
2022-11-16T11:26:41.185Z,5.70
2022-11-16T11:29:30.686Z,6.20
2022-11-16T11:32:05.064Z,5.80
2022-11-16T11:34:47.211Z,7.77
2022-11-16T11:37:17.933Z,7.27
2022-11-16T11:39:44.875Z,6.10
2022-11-16T11:42:14.466Z,7.97
2022-11-16T11:44:44.912Z,6.20
2022-11-16T11:47:59.630Z,6.33
2022-11-16T11:50:38.748Z,5.80
2022-11-16T11:53:15.330Z,6.40
2022-11-16T11:55:41.984Z,6.10
2022-11-16T11:58:16.785Z,6.73
2022-11-16T12:01:04.209Z,6.10
2022-11-16T12:03:45.607Z,6.37
2022-11-16T12:06:27.249Z,5.60
2022-11-16T12:09:06.109Z,6.03
2022-11-16T12:12:46.878Z,8.40
2022-11-16T12:15:39.443Z,5.70
2022-11-16T12:18:24.722Z,6.23
2022-11-16T12:21:13.183Z,5.90
2022-11-16T12:24:11.240Z,5.27
2022-11-16T12:27:07.016Z,5.83
2022-11-16T12:29:42.812Z,5.27
2022-11-16T12:32:23.591Z,5.47
2022-11-16T12:35:09.388Z,5.47
2022-11-16T12:38:14.201Z,5.40
2022-11-16T12:40:55.712Z,6.00
2022-11-16T12:43:44.346Z,5.90
2022-11-16T12:46:29.195Z,5.40
2022-11-16T12:49:04.728Z,5.07
2022-11-16T12:51:52.337Z,5.87
2022-11-16T12:54:27.571Z,5.57
2022-11-16T12:57:29.291Z,8.20
2022-11-16T13:00:08.102Z,9.00
2022-11-16T13:03:00.692Z,8.40
2022-11-16T13:05:42.256Z,8.83
2022-11-16T13:08:34.881Z,6.50
2022-11-16T13:11:15.656Z,7.20
2022-11-16T13:13:46.848Z,7.37
2022-11-16T13:16:20.435Z,8.20
2022-11-16T13:18:47.328Z,7.03
2022-11-16T13:21:34.055Z,6.60
2022-11-16T13:24:26.622Z,7.10
2022-11-16T13:27:14.925Z,7.30
2022-11-16T13:29:52.860Z,6.50
2022-11-16T13:32:36.393Z,8.73
2022-11-16T13:35:11.550Z,9.63
2022-11-16T13:37:38.107Z,6.13
2022-11-16T13:40:04.892Z,9.07
2022-11-16T13:42:34.316Z,11.70
2022-11-16T13:45:15.467Z,9.40
2022-11-16T13:47:51.444Z,6.83
2022-11-16T13:50:22.279Z,8.20
2022-11-16T13:54:10.860Z,7.27
2022-11-16T13:55:44.028Z,6.67
2022-11-16T13:58:19.936Z,8.20
2022-11-16T14:00:57.745Z,8.37
2022-11-16T14:03:38.240Z,7.17
2022-11-16T14:06:43.425Z,7.00
2022-11-16T14:09:46.390Z,6.10
2022-11-16T14:12:38.744Z,5.80
2022-11-16T14:15:17.836Z,5.10
2022-11-16T14:18:07.108Z,5.87
2022-11-16T14:25:13.133Z,4.40
2022-11-16T14:27:53.550Z,5.93
2022-11-16T14:30:25.659Z,4.70
2022-11-16T14:32:55.178Z,3.70
2022-11-16T14:35:35.051Z,2.93
2022-11-16T14:38:07.963Z,2.83
2022-11-16T14:40:53.559Z,3.03
2022-11-16T14:43:38.613Z,3.30
2022-11-16T14:46:09.260Z,2.43
2022-11-16T14:48:43.963Z,2.17
2022-11-16T14:51:15.036Z,2.30
2022-11-16T14:53:49.647Z,2.73
2022-11-16T14:56:18.306Z,2.57
2022-11-16T14:58:59.177Z,2.37
2022-11-16T15:01:35.736Z,1.90
2022-11-16T15:04:06.103Z,2.20
2022-11-16T15:07:01.945Z,2.17
2022-11-16T15:09:39.373Z,1.40
2022-11-16T15:12:33.015Z,2.27
2022-11-16T15:15:06.640Z,2.50
2022-11-16T15:17:33.704Z,1.73
2022-11-16T15:20:04.448Z,1.90
2022-11-16T15:22:39.206Z,2.17
2022-11-16T15:25:06.482Z,2.13
2022-11-16T15:27:42.209Z,2.73
2022-11-16T15:30:16.440Z,1.90
2022-11-16T15:32:44.075Z,2.27
2022-11-16T15:35:27.956Z,2.10
2022-11-16T15:38:26.107Z,2.23
2022-11-16T15:40:56.049Z,1.60
2022-11-16T15:43:26.508Z,1.80
2022-11-16T15:45:53.840Z,2.50
2022-11-16T15:48:25.240Z,2.10
2022-11-16T15:51:05.063Z,2.50
2022-11-16T15:53:44.970Z,2.00
2022-11-16T15:56:17.798Z,1.40
2022-11-16T15:58:46.405Z,2.20
2022-11-16T16:01:15.272Z,2.23
2022-11-16T16:04:05.848Z,2.40
2022-11-16T16:06:53.608Z,2.50
2022-11-16T16:09:28.684Z,2.70
2022-11-16T16:12:18.392Z,3.20
2022-11-16T16:14:45.847Z,3.50
2022-11-16T16:17:28.078Z,6.13
2022-11-16T16:20:03.542Z,12.67
2022-11-16T16:22:37.121Z,12.80
2022-11-16T16:25:25.396Z,6.57
2022-11-16T16:27:52.005Z,4.00
2022-11-16T16:30:18.589Z,5.03
2022-11-16T16:32:49.687Z,4.63
2022-11-16T16:35:18.676Z,3.17
2022-11-16T16:37:48.867Z,4.27
2022-11-16T16:40:16.955Z,2.70
2022-11-16T16:42:44.066Z,3.57
2022-11-16T16:45:41.779Z,3.77
2022-11-16T16:48:09.439Z,2.93
2022-11-16T16:50:36.416Z,3.00
2022-11-16T16:53:03.002Z,2.37
2022-11-16T16:55:32.889Z,3.43
2022-11-16T16:58:02.879Z,2.87
2022-11-16T17:00:29.387Z,3.50
2022-11-16T17:02:56.157Z,3.80
2022-11-16T17:05:22.744Z,3.60
2022-11-16T17:07:49.312Z,4.53
2022-11-16T17:10:16.868Z,3.33
2022-11-16T17:12:43.686Z,2.60
2022-11-16T17:15:12.857Z,2.17
2022-11-16T17:17:43.263Z,3.77
2022-11-16T17:20:11.507Z,3.13
2022-11-16T17:22:38.303Z,2.20
2022-11-16T17:25:05.573Z,2.60
2022-11-16T17:27:32.827Z,3.50
2022-11-16T17:29:59.463Z,4.03
2022-11-16T17:32:26.166Z,5.10
2022-11-16T17:34:52.819Z,4.60
2022-11-16T17:37:19.621Z,2.50
2022-11-16T17:39:46.176Z,2.70
2022-11-16T17:42:12.710Z,3.80
2022-11-16T17:44:39.405Z,9.20
2022-11-16T17:47:07.384Z,11.30
2022-11-16T17:49:33.997Z,9.70
2022-11-16T17:52:01.716Z,5.97
2022-11-16T17:54:28.677Z,5.40
2022-11-16T17:56:55.741Z,5.20
2022-11-16T17:59:27.935Z,7.27
2022-11-16T18:01:57.769Z,6.80
2022-11-16T18:04:24.791Z,7.07
2022-11-16T18:06:51.816Z,6.00
2022-11-16T18:09:19.038Z,5.20
2022-11-16T18:11:46.067Z,4.83
2022-11-16T18:14:13.081Z,5.27
2022-11-16T18:16:42.393Z,4.30
2022-11-16T18:19:10.003Z,4.20
2022-11-16T18:21:41.671Z,4.83
2022-11-16T18:24:09.375Z,4.40
2022-11-16T18:26:36.519Z,4.97
2022-11-16T18:29:04.203Z,5.83
2022-11-16T18:31:33.197Z,3.90
2022-11-16T18:34:03.167Z,3.13
2022-11-16T18:36:30.073Z,3.63
2022-11-16T18:38:57.029Z,3.17
2022-11-16T18:41:29.200Z,4.40
2022-11-16T18:44:00.029Z,4.43
2022-11-16T18:46:32.189Z,4.23
2022-11-16T18:49:00.149Z,4.10
2022-11-16T18:51:28.543Z,3.80
2022-11-16T18:53:55.914Z,4.40
2022-11-16T18:56:24.174Z,3.67
2022-11-16T18:58:52.900Z,3.50
2022-11-16T19:01:25.259Z,4.00
2022-11-16T19:03:53.725Z,4.30
2022-11-16T19:06:21.679Z,4.20
2022-11-16T19:08:55.735Z,5.10
2022-11-16T19:11:23.947Z,11.90
2022-11-16T19:13:57.027Z,11.50
2022-11-16T19:16:24.588Z,7.70
2022-11-16T19:18:51.819Z,7.10
2022-11-16T19:21:19.311Z,4.70
2022-11-16T19:23:51.137Z,6.67
2022-11-16T19:26:20.284Z,9.57
2022-11-16T19:28:48.813Z,11.57
2022-11-16T19:31:27.268Z,7.37
2022-11-16T19:33:58.921Z,5.90
2022-11-16T19:36:27.400Z,7.20
2022-11-16T19:38:54.097Z,6.63
2022-11-16T19:41:22.418Z,5.57
2022-11-16T19:43:52.739Z,4.73
2022-11-16T19:46:24.534Z,4.30
2022-11-16T19:48:51.725Z,4.40
2022-11-16T19:51:19.844Z,3.67
2022-11-16T19:53:47.146Z,3.67
2022-11-16T19:56:15.593Z,4.10
2022-11-16T19:58:42.423Z,3.00
2022-11-16T20:01:14.322Z,2.60
2022-11-16T20:03:41.895Z,3.07
2022-11-16T20:06:13.664Z,3.30
2022-11-16T20:08:41.667Z,3.60
2022-11-16T20:11:16.238Z,3.90
2022-11-16T20:13:43.087Z,3.43
2022-11-16T20:16:12.227Z,3.50
2022-11-16T20:18:41.403Z,3.93
2022-11-16T20:21:11.615Z,4.60
2022-11-16T20:23:38.235Z,4.27
2022-11-16T20:26:09.370Z,4.37
2022-11-16T20:28:38.218Z,3.90
2022-11-16T20:31:10.687Z,4.37
2022-11-16T20:33:37.994Z,4.87
2022-11-16T20:36:08.089Z,6.00
2022-11-16T20:38:35.998Z,3.90
2022-11-16T20:41:08.862Z,5.77
2022-11-16T20:43:36.150Z,5.90
2022-11-16T20:46:03.121Z,4.90
2022-11-16T20:48:29.701Z,4.20
2022-11-16T20:50:56.419Z,4.00
2022-11-16T20:53:23.152Z,4.43
2022-11-16T20:55:50.211Z,5.63
2022-11-16T20:58:22.420Z,5.17
2022-11-16T21:00:50.283Z,5.23
2022-11-16T21:03:17.203Z,4.77
2022-11-16T21:05:45.196Z,4.67
2022-11-16T21:08:13.094Z,6.80
2022-11-16T21:10:40.162Z,5.00
2022-11-16T21:13:31.796Z,3.97
2022-11-16T21:16:00.772Z,3.80
2022-11-16T21:18:30.860Z,4.53
2022-11-16T21:21:02.802Z,4.73
2022-11-16T21:23:31.981Z,4.20
2022-11-16T21:26:03.901Z,4.10
2022-11-16T21:28:30.796Z,5.03
2022-11-16T21:30:59.486Z,4.40
2022-11-16T21:33:26.809Z,4.13
2022-11-16T21:35:54.561Z,3.80
2022-11-16T21:38:22.695Z,3.80
2022-11-16T21:40:49.830Z,4.20
2022-11-16T21:43:17.050Z,4.63
2022-11-16T21:45:45.445Z,4.80
2022-11-16T21:48:12.727Z,4.53
2022-11-16T21:50:39.703Z,4.00
2022-11-16T21:53:07.461Z,4.10
2022-11-16T21:55:34.484Z,4.47
2022-11-16T21:58:03.431Z,4.97
2022-11-16T22:00:30.525Z,4.47
2022-11-16T22:02:57.129Z,4.33
2022-11-16T22:05:42.300Z,5.40
2022-11-16T22:08:11.715Z,3.67
2022-11-16T22:10:38.389Z,4.87
2022-11-16T22:13:05.512Z,5.10
2022-11-16T22:15:32.078Z,4.83
2022-11-16T22:18:00.978Z,4.23
2022-11-16T22:20:27.713Z,4.80
2022-11-16T22:22:54.332Z,4.20
2022-11-16T22:25:20.863Z,4.40
2022-11-16T22:28:13.771Z,4.00
2022-11-16T22:30:36.616Z,3.90
2022-11-16T22:33:03.186Z,3.87
2022-11-16T22:35:29.798Z,3.80
2022-11-16T22:37:56.408Z,4.50
2022-11-16T22:40:23.989Z,5.03
2022-11-16T22:42:50.594Z,4.00
2022-11-16T22:45:17.234Z,4.43
2022-11-16T22:47:43.768Z,4.27
2022-11-16T22:50:10.374Z,4.13
2022-11-16T22:52:38.089Z,4.00
2022-11-16T22:55:04.967Z,4.17
2022-11-16T22:57:33.580Z,4.07
2022-11-16T23:00:00.117Z,4.00
2022-11-16T23:02:26.851Z,3.47
2022-11-16T23:04:53.395Z,4.00
2022-11-16T23:07:19.940Z,4.07
2022-11-16T23:09:46.600Z,4.03
2022-11-16T23:12:31.801Z,5.00
2022-11-16T23:15:18.002Z,4.10
2022-11-16T23:17:45.482Z,4.63
2022-11-16T23:20:50.203Z,4.10
2022-11-16T23:23:38.415Z,3.30
2022-11-16T23:26:30.170Z,3.80
2022-11-16T23:28:56.886Z,4.33
2022-11-16T23:31:23.612Z,3.30
2022-11-16T23:33:50.172Z,3.77
2022-11-16T23:36:16.701Z,3.50
2022-11-16T23:38:43.402Z,3.80
2022-11-16T23:41:28.532Z,3.50
2022-11-16T23:43:57.903Z,4.80
2022-11-16T23:46:29.736Z,3.63
2022-11-16T23:48:57.568Z,3.57
2022-11-16T23:51:25.122Z,4.70
2022-11-16T23:53:52.928Z,3.60
2022-11-16T23:56:21.034Z,4.50
2022-11-16T23:58:48.699Z,3.60
